Odiliapeel, Netherlands
Current Conditions -  °F | °C
As of 5:55 PM on Saturday 22 Nov 2014 (Local Time) from EHVK Reporting Station
Haze Haze  
Wind Chill: 46°   Ceiling: 17000
Heat Index: 48°   Visibility: 5mi
Dew Point: 45°   Wind: 5mph
Humidity: 87%   Direction: 110°ESE
Pressure: 30.03"   Gusts: NA
Location:  51.64°N, 5.71°E
Report Text: EHVK 221655Z AUTO 11004KT 8000 BR OVC170 09/07 Q1017 BLU
Loading
Personal Weather Stations






























Interactive Weather Map New forecast layout! Learn more

10-Day Weather Forecast

Advertisements
Track Severe Weather on mobile